createdAt,value
2023-04-17T00:00:55.637Z,22.60
2023-04-17T00:01:55.712Z,21.70
2023-04-17T00:02:55.870Z,20.00
2023-04-17T00:03:55.674Z,21.60
2023-04-17T00:04:55.648Z,24.80
2023-04-17T00:05:55.543Z,21.30
2023-04-17T00:06:55.534Z,21.30
2023-04-17T00:07:55.518Z,23.20
2023-04-17T00:08:55.523Z,23.00
2023-04-17T00:09:55.497Z,20.20
2023-04-17T00:11:04.581Z,23.20
2023-04-17T00:11:56.502Z,22.60
2023-04-17T00:12:55.465Z,21.20
2023-04-17T00:13:55.461Z,21.90
2023-04-17T00:14:55.444Z,20.70
2023-04-17T00:15:55.471Z,19.70
2023-04-17T00:16:55.472Z,20.90
2023-04-17T00:17:55.419Z,24.90
2023-04-17T00:18:55.417Z,21.60
2023-04-17T00:19:55.384Z,21.10
2023-04-17T00:20:55.379Z,20.80
2023-04-17T00:21:55.363Z,22.90
2023-04-17T00:22:55.351Z,24.50
2023-04-17T00:23:55.338Z,22.00
2023-04-17T00:24:55.332Z,21.50
2023-04-17T00:25:55.318Z,21.20
2023-04-17T00:26:55.334Z,23.40
2023-04-17T00:27:55.298Z,20.90
2023-04-17T00:28:55.285Z,22.90
2023-04-17T00:29:55.278Z,19.80
2023-04-17T00:30:55.264Z,20.20
2023-04-17T00:31:55.318Z,22.00
2023-04-17T00:32:55.261Z,22.30
2023-04-17T00:33:55.233Z,21.50
2023-04-17T00:34:55.883Z,22.00
2023-04-17T00:35:55.213Z,21.20
2023-04-17T00:36:55.197Z,21.50
2023-04-17T00:37:55.191Z,22.20
2023-04-17T00:38:55.176Z,21.70
2023-04-17T00:39:55.168Z,19.70
2023-04-17T00:40:55.186Z,24.80
2023-04-17T00:41:55.147Z,22.70
2023-04-17T00:42:55.156Z,25.70
2023-04-17T00:43:55.120Z,20.60
2023-04-17T00:44:55.119Z,21.10
2023-04-17T00:45:55.118Z,23.90
2023-04-17T00:46:55.087Z,24.60
2023-04-17T00:47:55.096Z,23.60
2023-04-17T00:48:55.067Z,25.50
2023-04-17T00:49:55.055Z,23.70
2023-04-17T00:50:55.042Z,22.80
2023-04-17T00:51:55.031Z,23.40
2023-04-17T00:52:55.024Z,22.90
2023-04-17T00:53:55.009Z,22.20
2023-04-17T00:54:54.997Z,22.40
2023-04-17T00:55:54.990Z,24.30
2023-04-17T00:56:54.975Z,22.40
2023-04-17T00:57:54.969Z,22.40
2023-04-17T00:58:54.981Z,23.40
2023-04-17T00:59:54.941Z,23.80
2023-04-17T01:00:54.968Z,23.50
2023-04-17T01:01:55.050Z,20.60
2023-04-17T01:02:55.013Z,20.80
2023-04-17T01:03:55.378Z,26.70
2023-04-17T01:04:54.888Z,23.10
2023-04-17T01:05:54.873Z,23.60
2023-04-17T01:06:54.868Z,21.90
2023-04-17T01:07:54.860Z,24.90
2023-04-17T01:08:54.840Z,22.90
2023-04-17T01:09:54.828Z,25.00
2023-04-17T01:10:54.823Z,26.00
2023-04-17T01:11:54.807Z,24.80
2023-04-17T01:12:54.794Z,21.30
2023-04-17T01:13:54.784Z,23.90
2023-04-17T01:14:54.815Z,24.30
2023-04-17T01:15:54.763Z,23.50
2023-04-17T01:16:54.776Z,23.40
2023-04-17T01:17:54.775Z,22.80
2023-04-17T01:18:54.728Z,22.40
2023-04-17T01:19:54.718Z,24.50
2023-04-17T01:20:54.700Z,24.80
2023-04-17T01:21:54.693Z,23.20
2023-04-17T01:22:54.684Z,24.00
2023-04-17T01:23:54.696Z,25.60
2023-04-17T01:24:54.689Z,24.40
2023-04-17T01:25:54.661Z,27.70
2023-04-17T01:26:54.637Z,25.10
2023-04-17T01:27:54.637Z,28.20
2023-04-17T01:28:54.631Z,27.20
2023-04-17T01:29:54.604Z,27.00
2023-04-17T01:30:54.653Z,26.10
2023-04-17T01:31:54.589Z,27.10
2023-04-17T01:32:54.602Z,26.10
2023-04-17T01:33:54.567Z,24.70
2023-04-17T01:34:54.561Z,27.00
2023-04-17T01:35:54.533Z,25.70
2023-04-17T01:36:54.522Z,26.30
2023-04-17T01:37:54.514Z,23.60
2023-04-17T01:38:54.513Z,25.50
2023-04-17T01:39:54.497Z,24.40
2023-04-17T01:40:54.488Z,25.20
2023-04-17T01:41:54.468Z,26.30
2023-04-17T01:42:54.461Z,25.30
2023-04-17T01:43:54.459Z,25.50
2023-04-17T01:44:54.435Z,25.50
2023-04-17T01:45:54.480Z,25.50
2023-04-17T01:46:54.439Z,26.60
2023-04-17T01:47:54.437Z,25.90
2023-04-17T01:48:54.392Z,26.70
2023-04-17T01:49:54.381Z,26.00
2023-04-17T01:50:54.375Z,25.80
2023-04-17T01:51:54.357Z,26.10
2023-04-17T01:52:54.358Z,24.70
2023-04-17T01:53:54.341Z,28.10
2023-04-17T01:54:54.326Z,26.80
2023-04-17T01:55:54.315Z,24.90
2023-04-17T01:56:54.303Z,23.50
2023-04-17T01:57:54.292Z,25.60
2023-04-17T01:58:54.277Z,24.50
2023-04-17T01:59:54.271Z,24.90
2023-04-17T02:00:54.256Z,24.90
2023-04-17T02:01:54.366Z,23.80
2023-04-17T02:02:54.454Z,28.00
2023-04-17T02:03:54.538Z,24.80
2023-04-17T02:04:54.238Z,25.70
2023-04-17T02:05:54.213Z,23.90
2023-04-17T02:06:54.193Z,24.70
2023-04-17T02:07:54.185Z,25.30
2023-04-17T02:08:54.174Z,24.40
2023-04-17T02:09:54.159Z,26.10
2023-04-17T02:10:54.143Z,26.30
2023-04-17T02:11:54.137Z,23.20
2023-04-17T02:12:54.121Z,26.20
2023-04-17T02:13:54.118Z,25.60
2023-04-17T02:14:54.108Z,27.20
2023-04-17T02:15:54.166Z,24.00
2023-04-17T02:16:54.078Z,24.70
2023-04-17T02:17:54.119Z,25.30
2023-04-17T02:18:54.078Z,23.60
2023-04-17T02:19:54.044Z,24.00
2023-04-17T02:20:54.030Z,24.60
2023-04-17T02:21:54.023Z,23.00
2023-04-17T02:22:54.009Z,26.90
2023-04-17T02:23:54.001Z,25.80
2023-04-17T02:24:53.986Z,25.10
2023-04-17T02:25:53.977Z,27.00
2023-04-17T02:26:53.963Z,30.60
2023-04-17T02:27:53.956Z,25.70
2023-04-17T02:28:53.941Z,25.00
2023-04-17T02:29:53.933Z,27.70
2023-04-17T02:30:54.027Z,24.50
2023-04-17T02:31:53.967Z,27.60
2023-04-17T02:32:53.995Z,24.10
2023-04-17T02:33:53.901Z,25.20
2023-04-17T02:34:53.897Z,27.40
2023-04-17T02:35:53.877Z,25.80
2023-04-17T02:36:53.854Z,26.20
2023-04-17T02:37:53.854Z,23.00
2023-04-17T02:38:53.832Z,25.30
2023-04-17T02:39:53.897Z,23.90
2023-04-17T02:40:53.884Z,26.50
2023-04-17T02:41:53.902Z,24.50
2023-04-17T02:42:53.857Z,25.80
2023-04-17T02:43:53.882Z,26.50
2023-04-17T02:44:53.893Z,26.30
2023-04-17T02:45:53.794Z,24.10
2023-04-17T02:46:53.781Z,23.90
2023-04-17T02:47:53.786Z,25.40
2023-04-17T02:48:53.721Z,26.90
2023-04-17T02:49:53.712Z,25.20
2023-04-17T02:50:53.724Z,27.50
2023-04-17T02:51:53.688Z,23.80
2023-04-17T02:52:53.677Z,24.40
2023-04-17T02:53:53.666Z,24.60
2023-04-17T02:54:53.656Z,25.10
2023-04-17T02:55:53.670Z,27.10
2023-04-17T02:56:53.636Z,37.40
2023-04-17T02:57:53.627Z,115.20
2023-04-17T02:58:53.610Z,23.70
2023-04-17T02:59:53.618Z,30.00
2023-04-17T03:00:53.601Z,26.00
2023-04-17T03:01:53.627Z,30.10
2023-04-17T03:02:53.737Z,26.10
2023-04-17T03:03:53.807Z,26.70
2023-04-17T03:04:53.543Z,30.80
2023-04-17T03:05:53.546Z,28.50
2023-04-17T03:06:53.545Z,28.90
2023-04-17T03:07:53.532Z,26.70
2023-04-17T03:08:53.533Z,26.90
2023-04-17T03:09:53.501Z,30.00
2023-04-17T03:10:53.473Z,26.20
2023-04-17T03:11:53.465Z,26.70
2023-04-17T03:12:53.462Z,30.50
2023-04-17T03:13:53.444Z,29.50
2023-04-17T03:14:53.434Z,28.50
2023-04-17T03:15:53.427Z,31.10
2023-04-17T03:16:53.522Z,29.70
2023-04-17T03:17:53.451Z,28.10
2023-04-17T03:18:53.390Z,28.50
2023-04-17T03:19:53.376Z,31.40
2023-04-17T03:20:53.364Z,30.50
2023-04-17T03:21:53.355Z,32.30
2023-04-17T03:22:53.364Z,30.70
2023-04-17T03:23:53.331Z,30.10
2023-04-17T03:24:53.325Z,31.30
2023-04-17T03:25:53.313Z,35.90
2023-04-17T03:26:53.298Z,29.90
2023-04-17T03:27:53.304Z,29.50
2023-04-17T03:28:53.276Z,30.10
2023-04-17T03:29:53.266Z,31.40
2023-04-17T03:30:53.254Z,30.60
2023-04-17T03:31:53.301Z,33.90
2023-04-17T03:32:53.338Z,31.30
2023-04-17T03:33:53.229Z,31.60
2023-04-17T03:34:53.219Z,32.70
2023-04-17T03:35:53.200Z,31.60
2023-04-17T03:36:53.204Z,32.40
2023-04-17T03:37:53.178Z,30.80
2023-04-17T03:38:53.187Z,32.50
2023-04-17T03:39:53.160Z,32.40
2023-04-17T03:40:53.154Z,31.60
2023-04-17T03:41:53.134Z,32.60
2023-04-17T03:42:53.120Z,29.30
2023-04-17T03:43:53.122Z,30.90
2023-04-17T03:44:53.111Z,30.90
2023-04-17T03:45:53.113Z,31.60
2023-04-17T03:46:53.080Z,30.30
2023-04-17T03:47:53.103Z,33.00
2023-04-17T03:48:53.057Z,31.10
2023-04-17T03:49:53.049Z,33.90
2023-04-17T03:50:53.034Z,33.40
2023-04-17T03:51:53.026Z,32.40
2023-04-17T03:52:53.021Z,33.50
2023-04-17T03:53:53.010Z,35.40
2023-04-17T03:54:53.123Z,32.50
2023-04-17T03:55:52.976Z,32.10
2023-04-17T03:56:52.965Z,32.20
2023-04-17T03:57:52.956Z,33.40
2023-04-17T03:58:52.946Z,33.80
2023-04-17T03:59:52.934Z,33.00
2023-04-17T04:00:52.939Z,30.50
2023-04-17T04:01:52.969Z,34.20
2023-04-17T04:02:53.005Z,37.60
2023-04-17T04:03:53.138Z,32.40
2023-04-17T04:04:52.975Z,35.60
2023-04-17T04:05:52.867Z,33.80
2023-04-17T04:06:52.850Z,36.10
2023-04-17T04:07:52.840Z,34.60
2023-04-17T04:08:52.834Z,32.10
2023-04-17T04:09:52.821Z,34.80
2023-04-17T04:10:52.889Z,36.10
2023-04-17T04:11:52.798Z,37.00
2023-04-17T04:12:52.787Z,37.00
2023-04-17T04:13:52.777Z,36.70
2023-04-17T04:14:52.771Z,37.60
2023-04-17T04:15:52.891Z,33.70
2023-04-17T04:16:52.749Z,39.20
2023-04-17T04:17:52.776Z,34.90
2023-04-17T04:18:52.717Z,33.40
2023-04-17T04:19:52.735Z,37.00
2023-04-17T04:20:52.697Z,31.80
2023-04-17T04:21:52.685Z,32.70
2023-04-17T04:22:52.678Z,34.10
2023-04-17T04:23:52.672Z,32.40
2023-04-17T04:24:52.663Z,33.30
2023-04-17T04:25:52.657Z,37.00
2023-04-17T04:26:52.671Z,32.50
2023-04-17T04:27:52.643Z,31.80
2023-04-17T04:28:52.632Z,35.50
2023-04-17T04:29:52.599Z,35.50
2023-04-17T04:30:52.586Z,35.00
2023-04-17T04:31:52.765Z,34.20
2023-04-17T04:32:52.683Z,33.90
2023-04-17T04:33:52.556Z,33.20
2023-04-17T04:34:52.542Z,33.00
2023-04-17T04:35:52.540Z,38.20
2023-04-17T04:36:52.518Z,35.00
2023-04-17T04:37:52.510Z,34.60
2023-04-17T04:38:52.503Z,36.40
2023-04-17T04:39:52.543Z,35.30
2023-04-17T04:40:52.744Z,34.10
2023-04-17T04:41:52.480Z,35.80
2023-04-17T04:42:52.479Z,31.80
2023-04-17T04:43:52.450Z,34.70
2023-04-17T04:44:52.433Z,35.40
2023-04-17T04:45:52.425Z,34.70
2023-04-17T04:46:52.460Z,35.70
2023-04-17T04:47:52.434Z,33.90
2023-04-17T04:48:52.393Z,31.00
2023-04-17T04:49:52.378Z,37.30
2023-04-17T04:50:52.368Z,34.30
2023-04-17T04:51:52.368Z,36.10
2023-04-17T04:52:52.347Z,31.50
2023-04-17T04:53:52.338Z,34.80
2023-04-17T04:54:52.327Z,34.50
2023-04-17T04:55:52.315Z,36.70
2023-04-17T04:56:52.386Z,36.80
2023-04-17T04:57:52.296Z,35.20
2023-04-17T04:58:52.302Z,36.50
2023-04-17T04:59:52.278Z,35.90
2023-04-17T05:00:52.301Z,35.90
2023-04-17T05:01:52.294Z,35.00
2023-04-17T05:02:52.370Z,34.30
2023-04-17T05:03:52.404Z,35.00
2023-04-17T05:04:52.257Z,31.80
2023-04-17T05:05:52.216Z,36.60
2023-04-17T05:06:52.208Z,35.10
2023-04-17T05:07:52.186Z,36.40
2023-04-17T05:08:52.172Z,32.80
2023-04-17T05:09:52.166Z,35.70
2023-04-17T05:10:52.152Z,33.20
2023-04-17T05:11:52.140Z,34.70
2023-04-17T05:12:52.128Z,34.10
2023-04-17T05:13:52.139Z,31.90
2023-04-17T05:14:52.141Z,37.40
2023-04-17T05:15:52.135Z,35.60
2023-04-17T05:16:52.130Z,33.70
2023-04-17T05:17:52.111Z,36.60
2023-04-17T05:18:52.067Z,36.50
2023-04-17T05:19:52.057Z,33.30
2023-04-17T05:20:52.046Z,37.70
2023-04-17T05:21:52.032Z,33.80
2023-04-17T05:22:52.017Z,37.70
2023-04-17T05:23:52.016Z,34.90
2023-04-17T05:24:52.002Z,33.70
2023-04-17T05:25:51.981Z,36.80
2023-04-17T05:26:51.979Z,32.60
2023-04-17T05:27:51.963Z,33.70
2023-04-17T05:28:51.979Z,34.80
2023-04-17T05:29:51.944Z,35.80
2023-04-17T05:30:51.958Z,33.90
2023-04-17T05:31:51.955Z,34.10
2023-04-17T05:32:52.048Z,34.30
2023-04-17T05:33:51.910Z,34.90
2023-04-17T05:34:51.888Z,35.60
2023-04-17T05:35:53.956Z,33.80
2023-04-17T05:36:51.865Z,33.90
2023-04-17T05:37:51.855Z,35.80
2023-04-17T05:38:51.860Z,35.40
2023-04-17T05:39:51.825Z,36.60
2023-04-17T05:40:51.821Z,34.60
2023-04-17T05:41:51.836Z,36.30
2023-04-17T05:42:51.800Z,34.20
2023-04-17T05:43:51.781Z,36.00
2023-04-17T05:44:51.785Z,33.90
2023-04-17T05:45:51.833Z,31.50
2023-04-17T05:46:51.773Z,33.30
2023-04-17T05:47:51.785Z,35.00
2023-04-17T05:48:51.735Z,34.90
2023-04-17T05:49:51.724Z,32.40
2023-04-17T05:50:51.704Z,30.70
2023-04-17T05:51:51.736Z,28.10
2023-04-17T05:52:51.682Z,32.60
2023-04-17T05:53:51.674Z,33.00
2023-04-17T05:54:51.662Z,36.30
2023-04-17T05:55:51.654Z,35.20
2023-04-17T05:56:51.640Z,36.10
2023-04-17T05:57:51.635Z,33.20
2023-04-17T05:58:51.617Z,33.20
2023-04-17T05:59:51.604Z,34.10
2023-04-17T06:00:51.623Z,31.90
2023-04-17T06:01:51.700Z,39.20
2023-04-17T06:02:51.916Z,33.70
2023-04-17T06:03:51.771Z,35.00
2023-04-17T06:04:51.676Z,32.80
2023-04-17T06:05:51.616Z,34.00
2023-04-17T06:06:51.533Z,32.60
2023-04-17T06:07:51.523Z,31.50
2023-04-17T06:08:51.510Z,32.80
2023-04-17T06:09:51.502Z,34.40
2023-04-17T06:10:51.488Z,37.40
2023-04-17T06:11:51.478Z,32.80
2023-04-17T06:12:51.464Z,33.90
2023-04-17T06:13:51.464Z,32.00
2023-04-17T06:14:51.449Z,34.80
2023-04-17T06:15:51.448Z,33.10
2023-04-17T06:16:51.469Z,35.90
2023-04-17T06:17:51.458Z,33.30
2023-04-17T06:18:51.438Z,34.80
2023-04-17T06:19:51.388Z,37.20
2023-04-17T06:20:51.374Z,32.70
2023-04-17T06:21:51.369Z,34.30
2023-04-17T06:22:51.355Z,34.60
2023-04-17T06:23:51.388Z,32.10
2023-04-17T06:24:51.338Z,36.00
2023-04-17T06:25:51.317Z,35.60
2023-04-17T06:26:51.310Z,30.60
2023-04-17T06:27:51.312Z,33.10
2023-04-17T06:28:51.285Z,34.20
2023-04-17T06:29:51.276Z,32.80
2023-04-17T06:30:51.307Z,32.60
2023-04-17T06:31:51.269Z,31.80
2023-04-17T06:32:51.278Z,30.30
2023-04-17T06:33:51.235Z,29.60
2023-04-17T06:34:59.128Z,31.70
2023-04-17T06:35:52.243Z,30.40
2023-04-17T06:36:51.203Z,29.70
2023-04-17T06:37:51.191Z,29.70
2023-04-17T06:38:51.183Z,31.10
2023-04-17T06:39:51.166Z,33.00
2023-04-17T06:40:52.728Z,29.90
2023-04-17T06:41:51.145Z,30.80
2023-04-17T06:42:51.136Z,29.30
2023-04-17T06:43:51.123Z,30.90
2023-04-17T06:44:51.126Z,29.70
2023-04-17T06:45:51.207Z,29.60
2023-04-17T06:46:51.181Z,32.80
2023-04-17T06:47:51.123Z,31.90
2023-04-17T06:48:51.070Z,30.60
2023-04-17T06:49:51.061Z,30.20
2023-04-17T06:50:51.067Z,28.10
2023-04-17T06:51:51.033Z,29.10
2023-04-17T06:52:51.021Z,28.00
2023-04-17T06:53:51.012Z,29.70
2023-04-17T06:54:50.997Z,30.00
2023-04-17T06:55:50.990Z,27.40
2023-04-17T06:56:50.994Z,28.80
2023-04-17T06:57:50.998Z,32.20
2023-04-17T06:58:50.959Z,31.20
2023-04-17T06:59:50.950Z,28.70
2023-04-17T07:00:50.951Z,30.90
2023-04-17T07:01:51.087Z,27.60
2023-04-17T07:02:50.979Z,31.60
2023-04-17T07:03:51.043Z,27.50
2023-04-17T07:04:50.952Z,29.50
2023-04-17T07:05:50.890Z,26.20
2023-04-17T07:06:50.891Z,28.30
2023-04-17T07:07:50.886Z,27.80
2023-04-17T07:08:51.297Z,29.40
2023-04-17T07:09:50.832Z,27.60
2023-04-17T07:10:50.835Z,25.60
2023-04-17T07:11:50.819Z,30.10
2023-04-17T07:12:50.799Z,28.30
2023-04-17T07:13:50.787Z,29.70
2023-04-17T07:14:50.778Z,28.80
2023-04-17T07:15:50.927Z,28.00
2023-04-17T07:16:50.892Z,27.90
2023-04-17T07:17:50.762Z,26.10
2023-04-17T07:18:50.748Z,28.50
2023-04-17T07:19:50.746Z,23.90
2023-04-17T07:20:50.724Z,26.40
2023-04-17T07:21:50.697Z,30.00
2023-04-17T07:22:50.711Z,26.10
2023-04-17T07:23:50.675Z,29.90
2023-04-17T07:24:50.666Z,29.40
2023-04-17T07:25:50.655Z,25.80
2023-04-17T07:26:50.644Z,28.60
2023-04-17T07:27:50.628Z,30.10
2023-04-17T07:28:50.628Z,30.80
2023-04-17T07:29:50.612Z,26.60
2023-04-17T07:30:50.609Z,25.00
2023-04-17T07:31:50.633Z,24.30
2023-04-17T07:32:50.624Z,24.50
2023-04-17T07:33:50.575Z,26.50
2023-04-17T07:34:50.556Z,25.40
2023-04-17T07:35:50.554Z,27.00
2023-04-17T07:36:50.540Z,25.10
2023-04-17T07:37:50.526Z,25.00
2023-04-17T07:38:50.536Z,24.60
2023-04-17T07:39:50.529Z,23.50
2023-04-17T07:40:50.496Z,23.30
2023-04-17T07:41:50.492Z,23.40
2023-04-17T07:42:50.467Z,22.70
2023-04-17T07:43:50.454Z,21.30
2023-04-17T07:44:50.441Z,22.50
2023-04-17T07:45:50.434Z,21.20
2023-04-17T07:46:50.510Z,23.50
2023-04-17T07:47:50.487Z,25.20
2023-04-17T07:48:50.437Z,22.10
2023-04-17T07:49:50.410Z,23.60
2023-04-17T07:50:50.395Z,24.20
2023-04-17T07:51:50.378Z,22.60
2023-04-17T07:52:50.387Z,21.80
2023-04-17T07:53:50.347Z,21.80
2023-04-17T07:54:50.391Z,22.70
2023-04-17T07:55:50.321Z,22.90
2023-04-17T07:56:50.420Z,24.50
2023-04-17T07:57:50.299Z,21.50
2023-04-17T07:58:50.290Z,21.80
2023-04-17T07:59:50.278Z,21.40
2023-04-17T08:00:50.269Z,22.20
2023-04-17T08:01:50.308Z,21.90
2023-04-17T08:02:50.384Z,18.60
2023-04-17T08:03:50.414Z,17.50
2023-04-17T08:04:50.264Z,18.60
2023-04-17T08:05:50.216Z,18.70
2023-04-17T08:06:50.202Z,17.30
2023-04-17T08:07:50.193Z,17.60
2023-04-17T08:08:50.178Z,15.50
2023-04-17T08:09:50.171Z,16.70
2023-04-17T08:10:50.222Z,18.60
2023-04-17T08:11:57.022Z,17.80
2023-04-17T08:12:50.140Z,19.30
2023-04-17T08:13:50.123Z,15.30
2023-04-17T08:14:50.147Z,13.90
2023-04-17T08:15:50.117Z,15.80
2023-04-17T08:16:50.127Z,19.00
2023-04-17T08:17:50.147Z,14.00
2023-04-17T08:18:50.074Z,17.80
2023-04-17T08:19:50.063Z,16.30
2023-04-17T08:20:50.053Z,17.00
2023-04-17T08:21:50.051Z,15.10
2023-04-17T08:22:50.033Z,18.70
2023-04-17T08:23:50.034Z,16.70
2023-04-17T08:24:50.012Z,15.10
2023-04-17T08:25:50.022Z,14.20
2023-04-17T08:26:50.077Z,16.00
2023-04-17T08:27:49.976Z,15.60
2023-04-17T08:28:49.974Z,14.40
2023-04-17T08:29:49.958Z,15.20
2023-04-17T08:30:49.979Z,13.60
2023-04-17T08:31:53.366Z,15.40
2023-04-17T08:32:49.992Z,16.90
2023-04-17T08:33:51.306Z,14.10
2023-04-17T08:34:49.902Z,16.40
2023-04-17T08:35:49.890Z,17.90
2023-04-17T08:36:49.887Z,14.90
2023-04-17T08:37:49.874Z,16.30
2023-04-17T08:38:49.877Z,15.60
2023-04-17T08:39:49.867Z,12.80
2023-04-17T08:40:49.846Z,13.40
2023-04-17T08:41:49.828Z,17.20
2023-04-17T08:42:49.844Z,13.50
2023-04-17T08:43:49.811Z,14.90
2023-04-17T08:44:49.803Z,14.60
2023-04-17T08:45:49.830Z,16.40
2023-04-17T08:46:49.791Z,16.30
2023-04-17T08:47:49.791Z,14.10
2023-04-17T08:48:51.683Z,14.40
2023-04-17T08:49:49.748Z,16.60
2023-04-17T08:50:49.774Z,17.10
2023-04-17T08:51:49.732Z,14.20
2023-04-17T08:52:49.852Z,15.60
2023-04-17T08:53:49.705Z,12.60
2023-04-17T08:54:51.346Z,13.40
2023-04-17T08:55:49.677Z,14.10
2023-04-17T08:56:49.672Z,13.80
2023-04-17T08:57:49.678Z,13.60
2023-04-17T08:58:49.678Z,16.20
2023-04-17T08:59:49.636Z,13.50
2023-04-17T09:00:49.630Z,11.40
2023-04-17T09:01:49.663Z,11.60
2023-04-17T09:02:49.716Z,11.50
2023-04-17T09:03:49.867Z,14.10
2023-04-17T09:04:49.735Z,13.00
2023-04-17T09:05:49.574Z,16.00
2023-04-17T09:06:49.565Z,14.80
2023-04-17T09:07:51.687Z,15.70
2023-04-17T09:08:49.545Z,13.50
2023-04-17T09:09:49.547Z,14.60
2023-04-17T09:10:49.552Z,13.90
2023-04-17T09:11:49.512Z,11.50
2023-04-17T09:12:49.504Z,12.70
2023-04-17T09:13:49.508Z,14.70
2023-04-17T09:14:49.510Z,14.10
2023-04-17T09:15:49.618Z,13.70
2023-04-17T09:16:49.459Z,11.90
2023-04-17T09:17:49.497Z,12.70
2023-04-17T09:18:49.521Z,13.50
2023-04-17T09:19:49.433Z,13.20
2023-04-17T09:20:49.426Z,15.10
2023-04-17T09:21:49.413Z,11.70
2023-04-17T09:22:49.395Z,12.80
2023-04-17T09:23:49.393Z,13.00
2023-04-17T09:24:49.408Z,13.50
2023-04-17T09:25:49.399Z,12.50
2023-04-17T09:26:49.356Z,12.90
2023-04-17T09:27:49.352Z,15.30
2023-04-17T09:28:49.346Z,13.80
2023-04-17T09:29:49.318Z,14.00
2023-04-17T09:30:49.336Z,13.90
2023-04-17T09:31:49.411Z,12.10
2023-04-17T09:32:49.428Z,11.10
2023-04-17T09:33:49.292Z,13.00
2023-04-17T09:34:49.280Z,11.70
2023-04-17T09:35:49.279Z,11.60
2023-04-17T09:36:49.269Z,11.70
2023-04-17T09:37:49.252Z,10.60
2023-04-17T09:38:49.230Z,13.90
2023-04-17T09:39:49.223Z,11.00
2023-04-17T09:40:49.214Z,12.10
2023-04-17T09:41:49.204Z,14.20
2023-04-17T09:42:49.189Z,12.80
2023-04-17T09:43:49.182Z,15.50
2023-04-17T09:44:49.176Z,10.70
2023-04-17T09:45:49.169Z,11.70
2023-04-17T09:46:49.422Z,11.60
2023-04-17T09:47:49.348Z,11.00
2023-04-17T09:48:49.253Z,12.80
2023-04-17T09:49:49.205Z,12.30
2023-04-17T09:50:49.313Z,10.60
2023-04-17T09:51:49.283Z,11.90
2023-04-17T09:52:49.136Z,14.70
2023-04-17T09:53:49.083Z,12.90
2023-04-17T09:54:49.069Z,11.70
2023-04-17T09:55:49.069Z,10.90
2023-04-17T09:56:49.044Z,10.30
2023-04-17T09:57:49.062Z,13.90
2023-04-17T09:58:49.061Z,11.10
2023-04-17T09:59:49.122Z,11.00
2023-04-17T10:00:49.078Z,10.90
2023-04-17T10:01:49.036Z,12.60
2023-04-17T10:02:49.166Z,12.10
2023-04-17T10:03:49.096Z,13.10
2023-04-17T10:04:48.956Z,10.70
2023-04-17T10:05:48.949Z,12.00
2023-04-17T10:06:48.931Z,11.30
2023-04-17T10:07:48.940Z,12.50
2023-04-17T10:08:48.915Z,10.70
2023-04-17T10:09:49.077Z,12.60
2023-04-17T10:10:48.933Z,10.80
2023-04-17T10:11:48.884Z,12.50
2023-04-17T10:12:48.877Z,20.00
2023-04-17T10:13:48.866Z,13.20
2023-04-17T10:14:48.865Z,11.80
2023-04-17T10:15:48.846Z,12.40
2023-04-17T10:16:48.902Z,14.90
2023-04-17T10:17:48.826Z,10.40
2023-04-17T10:18:48.830Z,14.50
2023-04-17T10:19:48.799Z,14.70
2023-04-17T10:20:48.804Z,12.80
2023-04-17T10:21:48.777Z,13.20
2023-04-17T10:22:48.804Z,12.40
2023-04-17T10:23:48.754Z,13.00
2023-04-17T10:24:48.748Z,11.10
2023-04-17T10:25:48.739Z,12.00
2023-04-17T10:26:48.724Z,14.10
2023-04-17T10:27:48.720Z,11.80
2023-04-17T10:28:48.709Z,13.20
2023-04-17T10:29:48.948Z,11.70
2023-04-17T10:30:48.682Z,15.10
2023-04-17T10:31:48.818Z,11.50
2023-04-17T10:32:48.701Z,11.40
2023-04-17T10:33:48.652Z,13.80
2023-04-17T10:34:48.666Z,12.70
2023-04-17T10:35:48.662Z,13.40
2023-04-17T10:36:48.621Z,13.20
2023-04-17T10:37:48.628Z,15.00
2023-04-17T10:38:48.599Z,12.50
2023-04-17T10:39:48.736Z,13.50
2023-04-17T10:40:48.589Z,12.10
2023-04-17T10:41:48.566Z,12.00
2023-04-17T10:42:48.553Z,13.20
2023-04-17T10:43:48.547Z,15.80
2023-04-17T10:44:48.540Z,11.90
2023-04-17T10:45:48.574Z,12.40
2023-04-17T10:46:48.514Z,12.30
2023-04-17T10:47:48.701Z,12.30
2023-04-17T10:48:48.535Z,14.20
2023-04-17T10:49:48.690Z,12.90
2023-04-17T10:50:48.497Z,13.40
2023-04-17T10:51:48.464Z,12.10
2023-04-17T10:52:48.452Z,11.20
2023-04-17T10:53:48.448Z,11.10
2023-04-17T10:54:48.429Z,13.30
2023-04-17T10:55:48.464Z,13.30
2023-04-17T10:56:48.685Z,12.30
2023-04-17T10:57:48.400Z,13.80
2023-04-17T10:58:48.450Z,13.90
2023-04-17T10:59:48.609Z,11.40
2023-04-17T11:00:48.371Z,10.40
2023-04-17T11:01:48.420Z,10.90
2023-04-17T11:02:48.460Z,12.00
2023-04-17T11:03:48.337Z,11.50
2023-04-17T11:04:48.384Z,12.00
2023-04-17T11:05:48.392Z,11.70
2023-04-17T11:06:48.402Z,11.50
2023-04-17T11:07:48.419Z,12.00
2023-04-17T11:08:48.305Z,11.60
2023-04-17T11:09:48.294Z,10.60
2023-04-17T11:10:48.634Z,15.80
2023-04-17T11:11:48.287Z,10.00
2023-04-17T11:12:48.274Z,9.30
2023-04-17T11:13:48.439Z,10.50
2023-04-17T11:14:48.255Z,9.60
2023-04-17T11:15:48.296Z,12.20
2023-04-17T11:16:48.541Z,10.60
2023-04-17T11:17:48.549Z,10.50
2023-04-17T11:18:48.475Z,13.90
2023-04-17T11:19:48.476Z,10.60
2023-04-17T11:20:48.191Z,11.10
2023-04-17T11:21:48.171Z,10.50
2023-04-17T11:22:48.179Z,12.10
2023-04-17T11:23:48.134Z,12.20
2023-04-17T11:24:48.140Z,12.40
2023-04-17T11:25:48.118Z,10.90
2023-04-17T11:26:48.101Z,12.80
2023-04-17T11:27:48.106Z,9.50
2023-04-17T11:28:48.084Z,10.50
2023-04-17T11:29:48.070Z,13.40
2023-04-17T11:30:48.097Z,11.40
2023-04-17T11:31:48.152Z,10.10
2023-04-17T11:32:48.084Z,10.10
2023-04-17T11:33:48.029Z,9.50
2023-04-17T11:34:48.022Z,9.70
2023-04-17T11:35:48.013Z,11.40
2023-04-17T11:36:47.998Z,9.70
2023-04-17T11:37:47.990Z,9.80
2023-04-17T11:38:48.001Z,9.20
2023-04-17T11:39:48.003Z,11.90
2023-04-17T11:40:47.998Z,12.50
2023-04-17T11:41:47.966Z,10.10
2023-04-17T11:42:47.934Z,9.80
2023-04-17T11:43:47.956Z,9.90
2023-04-17T11:44:47.914Z,9.70
2023-04-17T11:45:47.928Z,11.40
2023-04-17T11:46:48.074Z,11.40
2023-04-17T11:47:47.929Z,9.40
2023-04-17T11:48:47.872Z,9.90
2023-04-17T11:49:47.869Z,10.80
2023-04-17T11:50:47.880Z,9.20
2023-04-17T11:51:47.852Z,11.40
2023-04-17T11:52:47.895Z,12.60
2023-04-17T11:53:47.837Z,12.10
2023-04-17T11:54:47.832Z,12.60
2023-04-17T11:55:47.809Z,9.90
2023-04-17T11:56:47.853Z,11.10
2023-04-17T11:57:47.782Z,9.60
2023-04-17T11:58:47.772Z,11.60
2023-04-17T11:59:47.758Z,11.80
2023-04-17T12:00:47.772Z,9.30
2023-04-17T12:01:47.762Z,10.90
2023-04-17T12:02:48.080Z,9.80
2023-04-17T12:03:47.915Z,9.90
2023-04-17T12:04:47.813Z,13.10
2023-04-17T12:05:47.799Z,10.60
2023-04-17T12:06:47.689Z,10.10
2023-04-17T12:07:47.684Z,10.40
2023-04-17T12:08:47.671Z,9.20
2023-04-17T12:09:47.656Z,10.90
2023-04-17T12:10:47.670Z,9.50
2023-04-17T12:11:47.673Z,9.10
2023-04-17T12:12:47.623Z,9.90
2023-04-17T12:13:47.618Z,9.90
2023-04-17T12:14:47.612Z,9.80
2023-04-17T12:15:47.668Z,11.20
2023-04-17T12:16:47.766Z,8.30
2023-04-17T12:17:47.607Z,10.10
2023-04-17T12:18:47.582Z,10.30
2023-04-17T12:19:47.552Z,10.20
2023-04-17T12:20:47.552Z,9.30
2023-04-17T12:21:47.554Z,8.90
2023-04-17T12:22:47.527Z,10.20
2023-04-17T12:23:47.510Z,8.70
2023-04-17T12:24:47.498Z,10.40
2023-04-17T12:25:47.500Z,10.50
2023-04-17T12:26:47.503Z,9.10
2023-04-17T12:27:49.269Z,9.80
2023-04-17T12:28:47.453Z,10.50
2023-04-17T12:29:47.444Z,10.80
2023-04-17T12:30:47.474Z,10.10
2023-04-17T12:31:47.467Z,10.00
2023-04-17T12:32:47.433Z,10.30
2023-04-17T12:33:47.406Z,10.50
2023-04-17T12:34:47.421Z,10.90
2023-04-17T12:35:47.424Z,10.70
2023-04-17T12:36:47.369Z,10.50
2023-04-17T12:37:47.360Z,8.70
2023-04-17T12:38:47.359Z,10.10
2023-04-17T12:39:47.342Z,9.40
2023-04-17T12:40:47.325Z,10.80
2023-04-17T12:41:47.317Z,12.60
2023-04-17T12:42:49.531Z,9.10
2023-04-17T12:43:47.308Z,11.50
2023-04-17T12:44:47.307Z,9.90
2023-04-17T12:45:47.312Z,9.60
2023-04-17T12:46:47.269Z,10.50
2023-04-17T12:47:47.342Z,10.90
2023-04-17T12:48:47.243Z,10.70
2023-04-17T12:49:47.231Z,11.60
2023-04-17T12:50:47.218Z,10.90
2023-04-17T12:51:47.212Z,8.70
2023-04-17T12:52:47.203Z,8.10
2023-04-17T12:53:47.194Z,7.50